Time;durP1;ratioP1;P1;durP2;ratioP2;P2;SDS_P1;SDS_P2;PMS_P1;PMS_P2;Temp;Humidity;BMP_temperature;BMP_pressure;BME280_temperature;BME280_humidity;BME280_pressure;Samples;Min_cycle;Max_cycle;Signal;HPM_P1;HPM_P2
2023/08/08 00:06:44;;;;;;;8.80;3.42;;;;;;;;;;20921290;28;20433;-64
2023/08/08 00:16:45;;;;;;;8.38;2.83;;;;;;;;;;20919090;28;20053;-64
2023/08/08 00:26:46;;;;;;;9.48;2.80;;;;;;;;;;20919421;28;20451;-62
2023/08/08 00:36:47;;;;;;;7.93;2.72;;;;;;;;;;20918147;28;20129;-63
2023/08/08 00:46:48;;;;;;;8.48;3.00;;;;;;;;;;20916522;28;20129;-63
2023/08/08 00:56:49;;;;;;;8.30;2.47;;;;;;;;;;20915431;28;20053;-63
2023/08/08 01:06:56;;;;;;;8.00;2.40;;;;;;;;;;20914842;28;20071;-63
2023/08/08 01:16:58;;;;;;;11.00;4.20;;;;;;;;;;20914168;28;20061;-63
2023/08/08 01:27:02;;;;;;;12.77;2.72;;;;;;;;;;20913270;28;20372;-63
2023/08/08 01:37:07;;;;;;;7.65;2.58;;;;;;;;;;20912515;28;20125;-63
2023/08/08 01:47:09;;;;;;;10.02;2.70;;;;;;;;;;20913566;28;20033;-63
2023/08/08 01:57:10;;;;;;;9.35;2.45;;;;;;;;;;20914121;28;20064;-62
2023/08/08 02:07:11;;;;;;;7.88;2.55;;;;;;;;;;20928749;28;20048;-64
2023/08/08 02:17:12;;;;;;;6.53;1.73;;;;;;;;;;20928142;28;20541;-63
2023/08/08 02:27:14;;;;;;;4.97;1.80;;;;;;;;;;20927006;28;20045;-63
2023/08/08 02:37:15;;;;;;;6.68;2.08;;;;;;;;;;20926644;28;20120;-63
2023/08/08 02:47:16;;;;;;;8.45;1.60;;;;;;;;;;20926986;28;20048;-63
2023/08/08 02:57:17;;;;;;;9.82;1.83;;;;;;;;;;20925993;28;20048;-63
2023/08/08 03:07:18;;;;;;;5.10;1.50;;;;;;;;;;20925035;28;20044;-64
2023/08/08 03:17:19;;;;;;;5.40;1.27;;;;;;;;;;20922427;28;20442;-63
2023/08/08 03:27:20;;;;;;;6.85;1.48;;;;;;;;;;20923420;28;20452;-63
2023/08/08 03:37:22;;;;;;;5.47;0.85;;;;;;;;;;20923393;28;20048;-64
2023/08/08 03:47:23;;;;;;;2.15;1.02;;;;;;;;;;20922248;28;20041;-63
2023/08/08 03:57:24;;;;;;;6.57;1.40;;;;;;;;;;20921412;28;20048;-63
2023/08/08 04:07:25;;;;;;;2.45;1.25;;;;;;;;;;20920884;28;20076;-62
2023/08/08 04:17:26;;;;;;;3.13;0.88;;;;;;;;;;20918836;28;20061;-63
2023/08/08 04:27:29;;;;;;;2.67;1.20;;;;;;;;;;20918915;28;20120;-63
2023/08/08 04:37:30;;;;;;;2.75;1.17;;;;;;;;;;20918673;28;20045;-63
2023/08/08 04:47:31;;;;;;;2.47;1.00;;;;;;;;;;20917543;28;20398;-64
2023/08/08 04:57:32;;;;;;;4.60;1.08;;;;;;;;;;20916668;28;20049;-64
2023/08/08 05:07:36;;;;;;;8.52;1.30;;;;;;;;;;20916314;28;20053;-63
2023/08/08 05:17:37;;;;;;;3.55;1.13;;;;;;;;;;20916093;28;20175;-63
2023/08/08 05:27:38;;;;;;;4.18;1.10;;;;;;;;;;20913000;28;20037;-63
2023/08/08 05:37:39;;;;;;;7.10;1.67;;;;;;;;;;20912074;28;20136;-64
2023/08/08 05:47:40;;;;;;;7.47;1.25;;;;;;;;;;20914038;28;20534;-64
2023/08/08 05:57:42;;;;;;;6.32;2.03;;;;;;;;;;20913258;28;20045;-65
2023/08/08 06:07:43;;;;;;;10.63;1.63;;;;;;;;;;20912794;28;20494;-64
2023/08/08 06:17:44;;;;;;;8.60;1.42;;;;;;;;;;20913452;28;20056;-65
2023/08/08 06:27:45;;;;;;;10.80;1.77;;;;;;;;;;20910802;28;20044;-64
2023/08/08 06:37:46;;;;;;;8.88;1.50;;;;;;;;;;20912110;28;20075;-65
2023/08/08 06:47:48;;;;;;;6.78;1.50;;;;;;;;;;20919494;28;20091;-65
2023/08/08 06:57:49;;;;;;;7.05;1.25;;;;;;;;;;20925532;28;20056;-64
2023/08/08 07:07:51;;;;;;;9.45;1.63;;;;;;;;;;20924085;28;20045;-65
2023/08/08 07:17:52;;;;;;;6.50;1.48;;;;;;;;;;20925967;28;20049;-64
2023/08/08 07:27:53;;;;;;;9.23;1.52;;;;;;;;;;20923534;28;20107;-64
2023/08/08 07:37:54;;;;;;;10.30;1.60;;;;;;;;;;20922722;28;20045;-64
2023/08/08 07:47:55;;;;;;;10.63;2.00;;;;;;;;;;20921981;28;20041;-65
2023/08/08 07:57:56;;;;;;;7.82;1.95;;;;;;;;;;20920580;28;20490;-65
2023/08/08 08:07:57;;;;;;;8.48;1.75;;;;;;;;;;20920622;28;20398;-65
2023/08/08 08:17:58;;;;;;;7.32;1.77;;;;;;;;;;20918714;28;20126;-63
2023/08/08 08:28:00;;;;;;;6.13;2.10;;;;;;;;;;20919152;28;20105;-65
2023/08/08 08:38:01;;;;;;;7.90;2.00;;;;;;;;;;20918022;28;20124;-65
2023/08/08 08:48:02;;;;;;;7.55;1.85;;;;;;;;;;20917129;28;20085;-65
2023/08/08 08:58:04;;;;;;;12.50;2.15;;;;;;;;;;20915660;28;20060;-65
2023/08/08 09:08:05;;;;;;;10.00;2.60;;;;;;;;;;20914719;28;20043;-64
2023/08/08 09:18:07;;;;;;;8.57;2.17;;;;;;;;;;20913590;28;20049;-65
2023/08/08 09:28:08;;;;;;;5.97;2.00;;;;;;;;;;20914611;28;20398;-65
2023/08/08 09:38:09;;;;;;;9.98;2.40;;;;;;;;;;20913752;28;20487;-65
2023/08/08 09:48:11;;;;;;;7.55;2.83;;;;;;;;;;20911827;28;20045;-65
2023/08/08 09:58:12;;;;;;;11.73;2.35;;;;;;;;;;20911425;28;20060;-65
2023/08/08 10:08:15;;;;;;;14.45;2.60;;;;;;;;;;20910820;28;20041;-65
2023/08/08 10:18:17;;;;;;;6.97;2.55;;;;;;;;;;20914085;28;20061;-65
2023/08/08 10:28:19;;;;;;;8.13;2.10;;;;;;;;;;20926155;28;20084;-69
2023/08/08 10:38:22;;;;;;;10.10;2.72;;;;;;;;;;20928106;28;20076;-72
2023/08/08 10:48:23;;;;;;;100.20;25.60;;;;;;;;;;20926233;28;20053;-62
2023/08/08 10:58:34;;;;;;;14.68;3.13;;;;;;;;;;20924940;28;20041;-64
2023/08/08 11:08:38;;;;;;;12.75;3.08;;;;;;;;;;20925335;28;20478;-62
2023/08/08 11:18:39;;;;;;;12.02;2.38;;;;;;;;;;20923203;28;20081;-63
2023/08/08 11:28:40;;;;;;;7.25;2.17;;;;;;;;;;20922358;28;20047;-63
2023/08/08 11:38:43;;;;;;;10.38;2.60;;;;;;;;;;20922915;28;20071;-62
2023/08/08 11:48:47;;;;;;;7.93;2.53;;;;;;;;;;20921972;28;20446;-62
2023/08/08 11:58:52;;;;;;;8.38;2.25;;;;;;;;;;20921920;28;20095;-63
2023/08/08 12:08:54;;;;;;;10.47;2.17;;;;;;;;;;20922073;28;20127;-63
2023/08/08 12:18:55;;;;;;;9.82;2.65;;;;;;;;;;20919456;28;20388;-63
2023/08/08 12:28:56;;;;;;;10.68;2.40;;;;;;;;;;20918894;28;20540;-63
2023/08/08 12:38:58;;;;;;;11.23;2.92;;;;;;;;;;20919163;28;20052;-63
2023/08/08 12:48:59;;;;;;;6.93;2.60;;;;;;;;;;20918736;28;20048;-63
2023/08/08 12:59:02;;;;;;;7.15;2.35;;;;;;;;;;20917586;28;20045;-63
2023/08/08 13:09:04;;;;;;;7.55;2.25;;;;;;;;;;20916259;28;20136;-64
2023/08/08 13:19:05;;;;;;;11.32;2.80;;;;;;;;;;20915750;28;20146;-63
2023/08/08 13:29:08;;;;;;;15.63;6.05;;;;;;;;;;20914952;28;20440;-63
2023/08/08 13:39:10;;;;;;;9.90;2.63;;;;;;;;;;20914590;28;20056;-63
2023/08/08 13:49:11;;;;;;;11.25;2.35;;;;;;;;;;20914338;28;20609;-63
2023/08/08 13:59:12;;;;;;;7.45;2.03;;;;;;;;;;20913207;28;20116;-64
2023/08/08 14:09:13;;;;;;;10.73;2.92;;;;;;;;;;20912851;28;20063;-63
2023/08/08 14:19:16;;;;;;;8.65;2.08;;;;;;;;;;20911251;28;20064;-63
2023/08/08 14:29:17;;;;;;;11.05;2.42;;;;;;;;;;20912516;28;20044;-63
2023/08/08 14:39:18;;;;;;;7.65;2.47;;;;;;;;;;20911640;28;20453;-64
2023/08/08 14:49:19;;;;;;;7.35;2.45;;;;;;;;;;20910407;28;20132;-63
2023/08/08 14:59:20;;;;;;;7.47;1.80;;;;;;;;;;20911030;28;20053;-63
2023/08/08 15:09:22;;;;;;;8.57;1.67;;;;;;;;;;20918981;28;20095;-63
2023/08/08 15:19:23;;;;;;;9.20;2.05;;;;;;;;;;20925219;28;20049;-64
2023/08/08 15:29:24;;;;;;;8.93;3.08;;;;;;;;;;20922750;28;20048;-63
2023/08/08 15:39:25;;;;;;;7.45;2.20;;;;;;;;;;20923679;28;20482;-65
2023/08/08 15:49:26;;;;;;;7.57;2.00;;;;;;;;;;20922885;28;20116;-63
2023/08/08 15:59:27;;;;;;;9.57;2.55;;;;;;;;;;20921673;28;20398;-63
2023/08/08 16:09:29;;;;;;;5.60;1.80;;;;;;;;;;20921300;28;20457;-64
2023/08/08 16:19:30;;;;;;;8.55;2.28;;;;;;;;;;20920323;28;20436;-63
2023/08/08 16:29:32;;;;;;;9.30;2.42;;;;;;;;;;20919778;28;20576;-63
2023/08/08 16:39:33;;;;;;;11.07;4.00;;;;;;;;;;20919073;28;20099;-63
2023/08/08 16:49:34;;;;;;;8.18;2.47;;;;;;;;;;20917900;28;20048;-64
2023/08/08 16:59:35;;;;;;;11.25;2.50;;;;;;;;;;20917343;28;20045;-63
2023/08/08 17:09:36;;;;;;;7.45;1.92;;;;;;;;;;20916229;28;20053;-63
2023/08/08 17:19:37;;;;;;;5.60;2.15;;;;;;;;;;20914495;28;20124;-63
2023/08/08 17:29:38;;;;;;;6.82;2.13;;;;;;;;;;20913018;28;20091;-62
2023/08/08 17:39:40;;;;;;;8.43;2.30;;;;;;;;;;20914738;28;20040;-61
2023/08/08 17:49:41;;;;;;;10.35;2.10;;;;;;;;;;20914223;28;20041;-63
2023/08/08 17:59:42;;;;;;;11.48;2.88;;;;;;;;;;20913555;28;20041;-62
2023/08/08 18:09:45;;;;;;;12.10;2.75;;;;;;;;;;20912463;28;20087;-62
2023/08/08 18:19:46;;;;;;;16.23;4.40;;;;;;;;;;20912528;28;20550;-63
2023/08/08 18:29:47;;;;;;;10.60;3.75;;;;;;;;;;20912593;28;20520;-63
2023/08/08 18:39:49;;;;;;;12.23;2.92;;;;;;;;;;20913817;28;20090;-62
2023/08/08 18:49:50;;;;;;;10.43;2.90;;;;;;;;;;20927908;28;20398;-63
2023/08/08 18:59:51;;;;;;;8.00;2.65;;;;;;;;;;20926735;28;20544;-62
2023/08/08 19:09:52;;;;;;;15.02;3.72;;;;;;;;;;20924749;28;20048;-62
2023/08/08 19:19:54;;;;;;;12.75;3.15;;;;;;;;;;20924944;28;20102;-63
2023/08/08 19:29:55;;;;;;;10.50;2.97;;;;;;;;;;20923948;28;20495;-63
2023/08/08 19:39:56;;;;;;;11.98;3.63;;;;;;;;;;20922193;28;20044;-64
2023/08/08 19:49:57;;;;;;;14.75;4.05;;;;;;;;;;20922170;28;20404;-65
2023/08/08 19:59:58;;;;;;;15.35;5.07;;;;;;;;;;20922399;28;20500;-64
2023/08/08 20:09:59;;;;;;;13.25;4.57;;;;;;;;;;20920123;28;20052;-63
2023/08/08 20:20:01;;;;;;;10.77;3.65;;;;;;;;;;20920831;28;20528;-63
2023/08/08 20:30:02;;;;;;;14.20;5.13;;;;;;;;;;20920335;28;20119;-63
2023/08/08 20:40:03;;;;;;;11.52;4.00;;;;;;;;;;20919297;28;20525;-62
2023/08/08 20:50:05;;;;;;;10.60;3.97;;;;;;;;;;20918505;28;20041;-65
2023/08/08 21:00:09;;;;;;;14.00;3.42;;;;;;;;;;20916211;28;20200;-62
2023/08/08 21:10:10;;;;;;;;;;;;;;;;;;20915721;28;20057;-63
2023/08/08 21:20:15;;;;;;;13.68;4.13;;;;;;;;;;20915796;28;19920;-63
2023/08/08 21:30:16;;;;;;;8.80;3.70;;;;;;;;;;20914000;28;20059;-62
2023/08/08 21:40:17;;;;;;;12.15;3.45;;;;;;;;;;20914467;28;20497;-62
2023/08/08 21:50:18;;;;;;;10.63;3.30;;;;;;;;;;20913723;28;20059;-62
2023/08/08 22:00:19;;;;;;;13.48;5.15;;;;;;;;;;20913202;28;20052;-63
2023/08/08 22:10:20;;;;;;;15.80;3.95;;;;;;;;;;20911549;28;20121;-62
2023/08/08 22:20:22;;;;;;;11.15;3.83;;;;;;;;;;20925445;28;20491;-62
2023/08/08 22:30:23;;;;;;;11.50;3.25;;;;;;;;;;20929232;28;20132;-61
2023/08/08 22:40:24;;;;;;;10.15;3.60;;;;;;;;;;20928164;28;20049;-62
2023/08/08 22:50:25;;;;;;;9.98;3.40;;;;;;;;;;20927820;28;20049;-62
2023/08/08 23:00:26;;;;;;;13.50;3.97;;;;;;;;;;20926737;28;20127;-63
2023/08/08 23:10:27;;;;;;;15.00;7.85;;;;;;;;;;20925577;28;20049;-62
2023/08/08 23:20:28;;;;;;;13.65;6.57;;;;;;;;;;20925361;28;20049;-61
2023/08/08 23:30:32;;;;;;;15.43;4.95;;;;;;;;;;20923245;28;20049;-61
2023/08/08 23:40:34;;;;;;;15.40;5.25;;;;;;;;;;20923997;28;20076;-62
2023/08/08 23:50:35;;;;;;;12.05;4.00;;;;;;;;;;20923000;28;20505;-62
